createdAt,value
2023-04-18T00:00:09.108Z,26.30
2023-04-18T00:01:09.143Z,26.29
2023-04-18T00:02:09.276Z,26.28
2023-04-18T00:03:09.420Z,26.29
2023-04-18T00:04:09.424Z,26.27
2023-04-18T00:05:09.362Z,26.28
2023-04-18T00:06:09.300Z,26.28
2023-04-18T00:07:09.357Z,26.26
2023-04-18T00:08:09.371Z,26.26
2023-04-18T00:09:09.482Z,26.26
2023-04-18T00:10:09.450Z,26.29
2023-04-18T00:11:09.468Z,26.26
2023-04-18T00:12:09.510Z,26.26
2023-04-18T00:13:09.545Z,26.25
2023-04-18T00:14:09.571Z,26.23
2023-04-18T00:15:09.635Z,26.22
2023-04-18T00:16:09.636Z,26.21
2023-04-18T00:17:09.748Z,26.18
2023-04-18T00:18:09.735Z,26.22
2023-04-18T00:19:09.736Z,26.23
2023-04-18T00:20:09.791Z,26.23
2023-04-18T00:21:09.823Z,26.22
2023-04-18T00:22:09.861Z,26.22
2023-04-18T00:23:11.536Z,26.20
2023-04-18T00:24:09.896Z,26.22
2023-04-18T00:25:09.858Z,26.21
2023-04-18T00:26:09.844Z,26.22
2023-04-18T00:27:09.843Z,26.22
2023-04-18T00:28:09.870Z,26.22
2023-04-18T00:29:09.843Z,26.23
2023-04-18T00:30:09.840Z,26.22
2023-04-18T00:31:09.850Z,26.23
2023-04-18T00:32:09.825Z,26.22
2023-04-18T00:33:09.805Z,26.25
2023-04-18T00:34:09.829Z,26.25
2023-04-18T00:35:09.780Z,26.26
2023-04-18T00:36:09.781Z,26.29
2023-04-18T00:37:09.764Z,26.29
2023-04-18T00:38:09.767Z,26.27
2023-04-18T00:39:09.770Z,26.29
2023-04-18T00:40:09.756Z,26.31
2023-04-18T00:41:09.732Z,26.30
2023-04-18T00:42:09.740Z,26.30
2023-04-18T00:43:09.746Z,26.32
2023-04-18T00:44:09.743Z,26.27
2023-04-18T00:45:09.714Z,26.30
2023-04-18T00:46:09.733Z,26.30
2023-04-18T00:47:09.718Z,26.30
2023-04-18T00:48:09.687Z,26.30
2023-04-18T00:49:09.701Z,26.32
2023-04-18T00:50:09.699Z,26.29
2023-04-18T00:51:09.704Z,26.29
2023-04-18T00:52:09.682Z,26.28
2023-04-18T00:53:09.669Z,26.29
2023-04-18T00:54:09.683Z,26.29
2023-04-18T00:55:09.657Z,26.27
2023-04-18T00:56:09.629Z,26.25
2023-04-18T00:57:09.642Z,26.26
2023-04-18T00:58:09.623Z,26.28
2023-04-18T00:59:09.629Z,26.28
2023-04-18T01:00:09.630Z,26.27
2023-04-18T01:01:09.641Z,26.26
2023-04-18T01:02:09.614Z,26.26
2023-04-18T01:03:09.687Z,26.22
2023-04-18T01:04:09.716Z,26.21
2023-04-18T01:05:09.599Z,26.26
2023-04-18T01:06:09.555Z,26.23
2023-04-18T01:07:09.551Z,26.26
2023-04-18T01:08:09.544Z,26.25
2023-04-18T01:09:09.554Z,26.24
2023-04-18T01:10:09.555Z,26.23
2023-04-18T01:11:09.547Z,26.22
2023-04-18T01:12:09.539Z,26.23
2023-04-18T01:13:09.510Z,26.21
2023-04-18T01:14:09.528Z,26.22
2023-04-18T01:15:09.566Z,26.22
2023-04-18T01:16:09.653Z,26.23
2023-04-18T01:17:09.607Z,26.26
2023-04-18T01:18:09.657Z,26.26
2023-04-18T01:19:09.664Z,26.27
2023-04-18T01:20:09.712Z,26.26
2023-04-18T01:21:09.730Z,26.23
2023-04-18T01:22:09.760Z,26.25
2023-04-18T01:23:09.801Z,26.23
2023-04-18T01:24:09.827Z,26.21
2023-04-18T01:25:09.924Z,26.26
2023-04-18T01:26:09.913Z,26.26
2023-04-18T01:27:09.928Z,26.26
2023-04-18T01:28:09.979Z,26.24
2023-04-18T01:29:10.013Z,26.23
2023-04-18T01:30:10.069Z,26.26
2023-04-18T01:31:10.152Z,26.26
2023-04-18T01:32:10.111Z,26.21
2023-04-18T01:33:10.161Z,26.20
2023-04-18T01:34:10.201Z,26.20
2023-04-18T01:35:10.242Z,26.19
2023-04-18T01:36:10.269Z,26.20
2023-04-18T01:37:10.326Z,26.22
2023-04-18T01:38:10.369Z,26.22
2023-04-18T01:39:10.392Z,26.20
2023-04-18T01:40:10.442Z,26.23
2023-04-18T01:41:10.486Z,26.22
2023-04-18T01:42:10.501Z,26.23
2023-04-18T01:43:10.576Z,26.21
2023-04-18T01:44:10.604Z,26.23
2023-04-18T01:45:10.677Z,26.22
2023-04-18T01:46:10.685Z,26.27
2023-04-18T01:47:10.741Z,26.25
2023-04-18T01:48:10.724Z,26.22
2023-04-18T01:49:10.791Z,26.23
2023-04-18T01:50:10.817Z,26.25
2023-04-18T01:51:10.866Z,26.26
2023-04-18T01:52:10.878Z,26.23
2023-04-18T01:53:10.916Z,26.26
2023-04-18T01:54:10.960Z,26.25
2023-04-18T01:55:10.972Z,26.22
2023-04-18T01:56:10.997Z,26.22
2023-04-18T01:57:11.059Z,26.23
2023-04-18T01:58:11.044Z,26.24
2023-04-18T01:59:11.105Z,26.25
2023-04-18T02:00:11.131Z,26.25
2023-04-18T02:01:11.197Z,26.25
2023-04-18T02:02:11.285Z,26.27
2023-04-18T02:03:11.334Z,26.23
2023-04-18T02:04:11.294Z,26.23
2023-04-18T02:05:11.307Z,26.23
2023-04-18T02:06:11.515Z,26.25
2023-04-18T02:07:11.336Z,26.24
2023-04-18T02:08:11.351Z,26.26
2023-04-18T02:09:11.400Z,26.22
2023-04-18T02:10:11.415Z,26.23
2023-04-18T02:11:11.486Z,26.21
2023-04-18T02:12:11.472Z,26.22
2023-04-18T02:13:11.553Z,26.22
2023-04-18T02:14:11.818Z,26.26
2023-04-18T02:15:11.644Z,26.22
2023-04-18T02:16:11.682Z,26.18
2023-04-18T02:17:11.643Z,26.20
2023-04-18T02:18:11.688Z,26.20
2023-04-18T02:19:11.692Z,26.20
2023-04-18T02:20:11.739Z,26.21
2023-04-18T02:21:11.772Z,26.22
2023-04-18T02:22:11.786Z,26.23
2023-04-18T02:23:11.841Z,26.26
2023-04-18T02:24:12.109Z,26.25
2023-04-18T02:25:11.904Z,26.23
2023-04-18T02:26:11.951Z,26.25
2023-04-18T02:27:11.989Z,26.21
2023-04-18T02:28:12.009Z,26.26
2023-04-18T02:29:12.038Z,26.23
2023-04-18T02:30:12.084Z,26.27
2023-04-18T02:31:12.088Z,26.22
2023-04-18T02:32:12.256Z,26.23
2023-04-18T02:33:12.155Z,26.24
2023-04-18T02:34:12.359Z,26.27
2023-04-18T02:35:12.230Z,26.26
2023-04-18T02:36:12.257Z,26.27
2023-04-18T02:37:12.306Z,26.27
2023-04-18T02:38:12.307Z,26.22
2023-04-18T02:39:12.373Z,26.25
2023-04-18T02:40:12.383Z,26.26
2023-04-18T02:41:12.408Z,26.27
2023-04-18T02:42:12.459Z,26.27
2023-04-18T02:43:12.477Z,26.26
2023-04-18T02:44:12.776Z,26.30
2023-04-18T02:45:12.561Z,26.24
2023-04-18T02:46:12.612Z,26.26
2023-04-18T02:47:12.613Z,26.27
2023-04-18T02:48:12.731Z,26.25
2023-04-18T02:49:12.698Z,26.25
2023-04-18T02:50:12.719Z,26.24
2023-04-18T02:51:12.776Z,26.24
2023-04-18T02:52:12.785Z,26.26
2023-04-18T02:53:12.854Z,26.32
2023-04-18T02:54:13.144Z,26.27
2023-04-18T02:55:12.897Z,26.27
2023-04-18T02:56:12.933Z,26.29
2023-04-18T02:57:12.997Z,26.28
2023-04-18T02:58:13.015Z,26.27
2023-04-18T02:59:13.035Z,26.23
2023-04-18T03:00:13.068Z,26.26
2023-04-18T03:01:13.130Z,26.26
2023-04-18T03:02:13.211Z,26.30
2023-04-18T03:03:13.225Z,26.29
2023-04-18T03:04:13.610Z,26.31
2023-04-18T03:05:13.265Z,26.29
2023-04-18T03:06:13.287Z,26.26
2023-04-18T03:07:13.307Z,26.29
2023-04-18T03:08:13.351Z,26.31
2023-04-18T03:09:13.400Z,26.31
2023-04-18T03:10:13.428Z,26.31
2023-04-18T03:11:13.464Z,26.29
2023-04-18T03:12:13.510Z,26.30
2023-04-18T03:13:13.517Z,26.28
2023-04-18T03:14:13.642Z,26.28
2023-04-18T03:15:13.569Z,26.29
2023-04-18T03:16:13.658Z,26.29
2023-04-18T03:17:13.634Z,26.28
2023-04-18T03:18:13.676Z,26.23
2023-04-18T03:19:13.709Z,26.27
2023-04-18T03:20:13.728Z,26.27
2023-04-18T03:21:13.781Z,26.22
2023-04-18T03:22:13.800Z,26.26
2023-04-18T03:23:13.839Z,26.26
2023-04-18T03:24:14.055Z,26.22
2023-04-18T03:25:13.886Z,26.23
2023-04-18T03:26:13.974Z,26.22
2023-04-18T03:27:13.968Z,26.25
2023-04-18T03:28:14.003Z,26.24
2023-04-18T03:29:14.035Z,26.25
2023-04-18T03:30:14.083Z,26.21
2023-04-18T03:31:14.092Z,26.22
2023-04-18T03:32:14.107Z,26.23
2023-04-18T03:33:14.147Z,26.22
2023-04-18T03:34:14.363Z,26.23
2023-04-18T03:35:14.241Z,26.22
2023-04-18T03:36:14.279Z,26.23
2023-04-18T03:37:14.318Z,26.21
2023-04-18T03:38:14.327Z,26.21
2023-04-18T03:39:14.354Z,26.22
2023-04-18T03:40:14.420Z,26.20
2023-04-18T03:41:14.464Z,26.20
2023-04-18T03:42:14.474Z,26.17
2023-04-18T03:43:14.522Z,26.18
2023-04-18T03:44:14.858Z,26.18
2023-04-18T03:45:14.597Z,26.17
2023-04-18T03:46:14.695Z,26.17
2023-04-18T03:47:14.662Z,26.15
2023-04-18T03:48:14.678Z,26.16
2023-04-18T03:49:14.712Z,26.16
2023-04-18T03:50:14.741Z,26.17
2023-04-18T03:51:14.900Z,26.15
2023-04-18T03:52:14.841Z,26.16
2023-04-18T03:53:14.854Z,26.13
2023-04-18T03:54:15.097Z,26.13
2023-04-18T03:55:14.941Z,26.13
2023-04-18T03:56:14.962Z,26.11
2023-04-18T03:57:15.022Z,26.10
2023-04-18T03:58:15.051Z,26.12
2023-04-18T03:59:15.065Z,26.12
2023-04-18T04:00:15.123Z,26.13
2023-04-18T04:01:15.145Z,26.12
2023-04-18T04:02:15.286Z,26.12
2023-04-18T04:03:15.326Z,26.11
2023-04-18T04:04:15.657Z,26.10
2023-04-18T04:05:15.307Z,26.09
2023-04-18T04:06:15.339Z,26.09
2023-04-18T04:07:15.401Z,26.09
2023-04-18T04:08:15.405Z,26.10
2023-04-18T04:09:15.418Z,26.09
2023-04-18T04:10:15.454Z,26.09
2023-04-18T04:11:15.492Z,26.06
2023-04-18T04:12:15.548Z,26.06
2023-04-18T04:13:15.549Z,26.09
2023-04-18T04:14:15.766Z,26.06
2023-04-18T04:15:15.612Z,26.09
2023-04-18T04:16:15.699Z,26.07
2023-04-18T04:17:15.687Z,26.06
2023-04-18T04:18:15.746Z,26.07
2023-04-18T04:19:15.764Z,26.07
2023-04-18T04:20:15.816Z,26.08
2023-04-18T04:21:15.846Z,26.07
2023-04-18T04:22:15.881Z,26.06
2023-04-18T04:23:15.917Z,26.07
2023-04-18T04:24:16.194Z,26.06
2023-04-18T04:25:15.999Z,26.05
2023-04-18T04:26:16.035Z,26.04
2023-04-18T04:27:16.056Z,26.02
2023-04-18T04:28:16.104Z,26.04
2023-04-18T04:29:16.133Z,26.02
2023-04-18T04:30:16.161Z,26.01
2023-04-18T04:31:16.330Z,26.04
2023-04-18T04:32:16.237Z,26.05
2023-04-18T04:33:16.328Z,26.06
2023-04-18T04:34:16.427Z,26.10
2023-04-18T04:35:16.353Z,26.11
2023-04-18T04:36:18.587Z,26.13
2023-04-18T04:37:16.628Z,26.16
2023-04-18T04:38:16.656Z,26.17
2023-04-18T04:39:16.695Z,26.18
2023-04-18T04:40:16.734Z,26.17
2023-04-18T04:41:16.771Z,26.23
2023-04-18T04:42:16.791Z,26.21
2023-04-18T04:43:16.839Z,26.22
2023-04-18T04:44:16.940Z,26.20
2023-04-18T04:45:16.917Z,26.18
2023-04-18T04:46:16.994Z,26.18
2023-04-18T04:47:17.004Z,26.17
2023-04-18T04:48:17.027Z,26.20
2023-04-18T04:49:17.058Z,26.22
2023-04-18T04:50:17.112Z,26.25
2023-04-18T04:51:17.149Z,26.24
2023-04-18T04:52:17.155Z,26.24
2023-04-18T04:53:17.189Z,26.21
2023-04-18T04:54:17.263Z,26.22
2023-04-18T04:55:17.292Z,26.24
2023-04-18T04:56:17.330Z,26.24
2023-04-18T04:57:17.369Z,26.24
2023-04-18T04:58:17.380Z,26.25
2023-04-18T04:59:17.382Z,26.28
2023-04-18T05:00:17.395Z,26.29
2023-04-18T05:01:17.376Z,26.30
2023-04-18T05:02:17.465Z,26.26
2023-04-18T05:03:17.473Z,26.26
2023-04-18T05:04:17.823Z,26.27
2023-04-18T05:05:17.357Z,26.23
2023-04-18T05:06:17.334Z,26.26
2023-04-18T05:07:17.316Z,26.26
2023-04-18T05:08:17.345Z,26.26
2023-04-18T05:09:17.336Z,26.25
2023-04-18T05:10:17.325Z,26.24
2023-04-18T05:11:17.348Z,26.25
2023-04-18T05:12:17.378Z,26.26
2023-04-18T05:13:17.445Z,26.26
2023-04-18T05:14:17.495Z,26.26
2023-04-18T05:15:17.463Z,26.26
2023-04-18T05:16:17.529Z,26.29
2023-04-18T05:17:17.537Z,26.31
2023-04-18T05:18:17.573Z,26.29
2023-04-18T05:19:17.601Z,26.32
2023-04-18T05:20:17.628Z,26.33
2023-04-18T05:21:17.642Z,26.35
2023-04-18T05:22:17.712Z,26.35
2023-04-18T05:23:17.734Z,26.33
2023-04-18T05:24:17.728Z,26.43
2023-04-18T05:25:17.801Z,26.42
2023-04-18T05:26:17.782Z,26.41
2023-04-18T05:27:18.295Z,26.41
2023-04-18T05:28:18.130Z,26.74
2023-04-18T05:29:17.884Z,26.97
2023-04-18T05:30:17.893Z,27.62
2023-04-18T05:31:17.947Z,27.59
2023-04-18T05:32:17.950Z,27.40
2023-04-18T05:33:18.005Z,27.60
2023-04-18T05:34:18.028Z,28.17
2023-04-18T05:35:18.015Z,27.49
2023-04-18T05:36:18.043Z,27.74
2023-04-18T05:37:18.105Z,28.73
2023-04-18T05:38:18.113Z,28.55
2023-04-18T05:39:18.099Z,29.94
2023-04-18T05:40:18.160Z,28.93
2023-04-18T05:41:18.159Z,28.52
2023-04-18T05:42:18.223Z,28.18
2023-04-18T05:43:18.186Z,28.25
2023-04-18T05:44:18.520Z,28.60
2023-04-18T05:45:18.191Z,28.52
2023-04-18T05:46:18.158Z,28.27
2023-04-18T05:47:18.168Z,28.04
2023-04-18T05:48:18.187Z,27.97
2023-04-18T05:49:18.201Z,27.82
2023-04-18T05:50:18.239Z,28.93
2023-04-18T05:51:18.230Z,28.41
2023-04-18T05:52:18.284Z,28.38
2023-04-18T05:53:18.300Z,28.37
2023-04-18T05:54:18.381Z,28.20
2023-04-18T05:55:18.641Z,27.89
2023-04-18T05:56:18.499Z,27.91
2023-04-18T05:57:18.573Z,27.63
2023-04-18T05:58:18.647Z,27.86
2023-04-18T05:59:18.690Z,27.79
2023-04-18T06:00:18.784Z,27.99
2023-04-18T06:01:18.828Z,28.14
2023-04-18T06:02:18.961Z,28.21
2023-04-18T06:03:19.289Z,28.23
2023-04-18T06:04:19.242Z,28.24
2023-04-18T06:05:19.234Z,27.92
2023-04-18T06:06:19.065Z,28.04
2023-04-18T06:07:19.105Z,27.92
2023-04-18T06:08:19.609Z,27.81
2023-04-18T06:09:19.212Z,27.91
2023-04-18T06:10:19.273Z,28.10
2023-04-18T06:11:19.317Z,28.20
2023-04-18T06:12:19.344Z,27.68
2023-04-18T06:13:19.402Z,27.66
2023-04-18T06:14:19.467Z,27.34
2023-04-18T06:15:19.490Z,28.03
2023-04-18T06:16:19.540Z,27.80
2023-04-18T06:17:19.525Z,27.87
2023-04-18T06:18:19.602Z,28.49
2023-04-18T06:19:19.656Z,27.94
2023-04-18T06:20:19.727Z,27.93
2023-04-18T06:21:19.798Z,27.89
2023-04-18T06:22:19.867Z,27.99
2023-04-18T06:23:20.143Z,27.94
2023-04-18T06:24:19.993Z,27.93
2023-04-18T06:25:20.017Z,27.98
2023-04-18T06:26:20.077Z,27.91
2023-04-18T06:27:30.507Z,27.75
2023-04-18T06:28:21.143Z,27.59
2023-04-18T06:29:20.091Z,28.10
2023-04-18T06:30:20.118Z,27.87
2023-04-18T06:31:20.118Z,28.35
2023-04-18T06:32:20.106Z,28.22
2023-04-18T06:33:20.123Z,28.46
2023-04-18T06:34:20.106Z,28.60
2023-04-18T06:35:20.048Z,28.28
2023-04-18T06:36:20.101Z,28.39
2023-04-18T06:37:20.047Z,28.50
2023-04-18T06:38:20.067Z,28.49
2023-04-18T06:39:20.109Z,28.16
2023-04-18T06:40:20.147Z,27.99
2023-04-18T06:41:20.184Z,28.10
2023-04-18T06:42:22.012Z,28.02
2023-04-18T06:43:20.250Z,27.71
2023-04-18T06:44:20.341Z,27.63
2023-04-18T06:45:20.659Z,27.54
2023-04-18T06:46:20.467Z,27.52
2023-04-18T06:47:20.412Z,27.67
2023-04-18T06:48:20.447Z,27.61
2023-04-18T06:49:23.419Z,27.75
2023-04-18T06:50:21.501Z,27.63
2023-04-18T06:51:20.466Z,27.36
2023-04-18T06:52:20.433Z,27.47
2023-04-18T06:53:20.477Z,27.56
2023-04-18T06:54:20.427Z,27.60
2023-04-18T06:55:20.433Z,27.71
2023-04-18T06:56:20.406Z,27.60
2023-04-18T06:57:20.399Z,27.69
2023-04-18T06:58:21.154Z,27.74
2023-04-18T06:59:20.407Z,27.68
2023-04-18T07:00:20.399Z,27.34
2023-04-18T07:01:20.472Z,27.71
2023-04-18T07:02:20.449Z,27.83
2023-04-18T07:03:21.011Z,28.17
2023-04-18T07:04:20.517Z,28.16
2023-04-18T07:05:20.363Z,27.94
2023-04-18T07:06:20.361Z,27.49
2023-04-18T07:07:20.355Z,27.77
2023-04-18T07:08:20.359Z,27.88
2023-04-18T07:09:20.382Z,27.63
2023-04-18T07:10:20.390Z,27.97
2023-04-18T07:11:20.424Z,27.74
2023-04-18T07:12:20.423Z,27.99
2023-04-18T07:13:20.486Z,27.18
2023-04-18T07:14:20.484Z,27.44
2023-04-18T07:15:20.546Z,27.89
2023-04-18T07:16:20.607Z,28.28
2023-04-18T07:17:20.541Z,28.09
2023-04-18T07:18:30.339Z,27.17
2023-04-18T07:19:21.643Z,27.33
2023-04-18T07:20:20.546Z,27.71
2023-04-18T07:21:20.536Z,28.13
2023-04-18T07:22:20.541Z,27.71
2023-04-18T07:23:20.551Z,27.26
2023-04-18T07:24:20.567Z,27.26
2023-04-18T07:25:20.553Z,27.41
2023-04-18T07:26:20.565Z,27.46
2023-04-18T07:27:20.521Z,27.40
2023-04-18T07:28:20.502Z,27.47
2023-04-18T07:29:20.516Z,27.26
2023-04-18T07:30:20.687Z,27.64
2023-04-18T07:31:20.599Z,27.46
2023-04-18T07:32:20.563Z,27.71
2023-04-18T07:33:20.474Z,27.50
2023-04-18T07:34:20.681Z,27.48
2023-04-18T07:35:20.656Z,27.52
2023-04-18T07:36:20.489Z,27.82
2023-04-18T07:37:20.495Z,27.83
2023-04-18T07:38:20.581Z,27.50
2023-04-18T07:39:20.564Z,27.70
2023-04-18T07:40:20.674Z,27.89
2023-04-18T07:41:20.593Z,27.65
2023-04-18T07:42:21.157Z,27.92
2023-04-18T07:43:20.957Z,27.77
2023-04-18T07:44:20.667Z,27.68
2023-04-18T07:45:20.635Z,27.74
2023-04-18T07:46:20.699Z,27.69
2023-04-18T07:47:22.296Z,27.68
2023-04-18T07:48:20.689Z,27.95
2023-04-18T07:49:21.166Z,27.64
2023-04-18T07:50:20.708Z,27.71
2023-04-18T07:51:20.763Z,27.55
2023-04-18T07:52:20.812Z,27.72
2023-04-18T07:53:20.901Z,27.65
2023-04-18T07:54:20.976Z,27.56
2023-04-18T07:55:21.033Z,27.93
2023-04-18T07:56:21.062Z,27.20
2023-04-18T07:57:21.123Z,27.25
2023-04-18T07:58:21.168Z,27.89
2023-04-18T07:59:21.251Z,27.53
2023-04-18T08:00:21.280Z,27.84
2023-04-18T08:01:21.324Z,27.84
2023-04-18T08:02:21.540Z,27.84
2023-04-18T08:03:21.499Z,27.98
2023-04-18T08:04:21.616Z,27.94
2023-04-18T08:05:21.597Z,27.95
2023-04-18T08:06:21.590Z,28.37
2023-04-18T08:07:21.645Z,28.15
2023-04-18T08:08:22.698Z,28.20
2023-04-18T08:09:21.926Z,28.22
2023-04-18T08:10:23.733Z,28.15
2023-04-18T08:11:21.863Z,28.06
2023-04-18T08:12:21.923Z,27.84
2023-04-18T08:13:21.984Z,28.09
2023-04-18T08:14:22.179Z,28.51
2023-04-18T08:15:22.133Z,28.60
2023-04-18T08:16:22.147Z,28.50
2023-04-18T08:17:22.076Z,28.23
2023-04-18T08:18:22.069Z,28.47
2023-04-18T08:19:22.202Z,29.02
2023-04-18T08:20:22.076Z,28.44
2023-04-18T08:21:22.185Z,28.46
2023-04-18T08:22:22.109Z,28.35
2023-04-18T08:23:22.155Z,28.14
2023-04-18T08:24:22.181Z,27.85
2023-04-18T08:25:22.116Z,27.62
2023-04-18T08:26:22.157Z,27.46
2023-04-18T08:27:22.148Z,27.52
2023-04-18T08:28:22.180Z,27.53
2023-04-18T08:29:22.177Z,27.39
2023-04-18T08:30:22.141Z,27.23
2023-04-18T08:31:22.145Z,27.30
2023-04-18T08:32:22.184Z,27.41
2023-04-18T08:33:22.151Z,27.37
2023-04-18T08:34:22.157Z,27.33
2023-04-18T08:35:22.155Z,27.92
2023-04-18T08:36:22.160Z,28.19
2023-04-18T08:37:22.164Z,29.05
2023-04-18T08:38:22.188Z,28.83
2023-04-18T08:39:23.679Z,28.68
2023-04-18T08:40:22.222Z,28.73
2023-04-18T08:41:22.215Z,28.65
2023-04-18T08:42:22.191Z,28.28
2023-04-18T08:43:22.242Z,28.41
2023-04-18T08:44:22.228Z,28.43
2023-04-18T08:45:22.171Z,28.64
2023-04-18T08:46:22.358Z,28.49
2023-04-18T08:47:22.251Z,28.41
2023-04-18T08:48:22.182Z,28.73
2023-04-18T08:49:22.176Z,28.89
2023-04-18T08:50:22.147Z,28.66
2023-04-18T08:51:22.164Z,28.81
2023-04-18T08:52:22.151Z,29.04
2023-04-18T08:53:22.121Z,29.00
2023-04-18T08:54:22.138Z,28.67
2023-04-18T08:55:22.236Z,28.62
2023-04-18T08:56:22.200Z,28.85
2023-04-18T08:57:22.128Z,29.56
2023-04-18T08:58:22.094Z,28.97
2023-04-18T08:59:22.074Z,28.99
2023-04-18T09:00:22.082Z,28.97
2023-04-18T09:01:22.182Z,29.01
2023-04-18T09:02:22.177Z,28.81
2023-04-18T09:03:22.060Z,28.68
2023-04-18T09:04:22.098Z,28.69
2023-04-18T09:05:22.065Z,28.67
2023-04-18T09:06:22.187Z,28.73
2023-04-18T09:07:22.063Z,29.13
2023-04-18T09:08:22.336Z,29.00
2023-04-18T09:09:22.011Z,29.15
2023-04-18T09:10:22.028Z,28.77
2023-04-18T09:11:22.260Z,28.93
2023-04-18T09:12:22.008Z,28.75
2023-04-18T09:13:23.552Z,28.87
2023-04-18T09:14:22.248Z,28.95
2023-04-18T09:15:22.233Z,29.02
2023-04-18T09:16:22.757Z,29.16
2023-04-18T09:17:22.364Z,28.84
2023-04-18T09:18:22.376Z,28.81
2023-04-18T09:19:22.454Z,28.84
2023-04-18T09:20:22.514Z,28.80
2023-04-18T09:21:22.695Z,29.05
2023-04-18T09:22:22.637Z,28.85
2023-04-18T09:23:22.712Z,28.83
2023-04-18T09:24:22.767Z,28.91
2023-04-18T09:25:23.222Z,29.04
2023-04-18T09:26:22.932Z,28.74
2023-04-18T09:27:22.945Z,28.82
2023-04-18T09:28:22.912Z,28.49
2023-04-18T09:29:22.940Z,27.44
2023-04-18T09:30:23.216Z,27.91
2023-04-18T09:31:23.251Z,27.52
2023-04-18T09:32:23.060Z,27.09
2023-04-18T09:33:23.102Z,27.67
2023-04-18T09:34:23.114Z,27.97
2023-04-18T09:35:23.112Z,27.75
2023-04-18T09:36:23.825Z,27.97
2023-04-18T09:37:23.497Z,27.88
2023-04-18T09:38:23.258Z,28.04
2023-04-18T09:39:23.248Z,27.98
2023-04-18T09:40:23.355Z,28.23
2023-04-18T09:41:23.750Z,28.26
2023-04-18T09:42:23.329Z,28.52
2023-04-18T09:43:23.326Z,28.53
2023-04-18T09:44:23.331Z,28.69
2023-04-18T09:45:23.325Z,28.42
2023-04-18T09:46:23.397Z,28.44
2023-04-18T09:47:23.372Z,28.51
2023-04-18T09:48:23.328Z,28.43
2023-04-18T09:49:24.212Z,28.30
2023-04-18T09:50:23.383Z,28.21
2023-04-18T09:51:23.739Z,28.21
2023-04-18T09:52:23.346Z,28.25
2023-04-18T09:53:23.349Z,28.16
2023-04-18T09:54:23.418Z,28.36
2023-04-18T09:55:23.485Z,28.22
2023-04-18T09:56:23.499Z,28.18
2023-04-18T09:57:23.553Z,28.04
2023-04-18T09:58:23.619Z,28.01
2023-04-18T09:59:23.653Z,28.11
2023-04-18T10:00:24.447Z,28.04
2023-04-18T10:01:23.830Z,27.97
2023-04-18T10:02:23.932Z,27.87
2023-04-18T10:03:23.979Z,28.31
2023-04-18T10:04:24.001Z,28.19
2023-04-18T10:05:24.035Z,28.13
2023-04-18T10:06:24.070Z,27.97
2023-04-18T10:07:24.126Z,27.98
2023-04-18T10:08:24.191Z,28.12
2023-04-18T10:09:24.256Z,27.77
2023-04-18T10:10:24.335Z,28.04
2023-04-18T10:11:24.411Z,27.99
2023-04-18T10:12:24.408Z,28.03
2023-04-18T10:13:24.477Z,28.04
2023-04-18T10:14:24.521Z,27.85
2023-04-18T10:15:24.585Z,28.01
2023-04-18T10:16:24.699Z,27.99
2023-04-18T10:17:24.697Z,27.92
2023-04-18T10:18:24.788Z,27.94
2023-04-18T10:19:24.776Z,27.72
2023-04-18T10:20:24.865Z,28.11
2023-04-18T10:21:25.222Z,27.14
2023-04-18T10:22:24.944Z,27.10
2023-04-18T10:23:26.497Z,27.10
2023-04-18T10:24:25.174Z,26.74
2023-04-18T10:25:25.197Z,27.23
2023-04-18T10:26:25.257Z,27.58
2023-04-18T10:27:25.257Z,27.55
2023-04-18T10:28:25.293Z,27.82
2023-04-18T10:29:25.337Z,27.66
2023-04-18T10:30:25.365Z,27.78
2023-04-18T10:31:25.467Z,27.89
2023-04-18T10:32:25.470Z,27.84
2023-04-18T10:33:30.412Z,28.21
2023-04-18T10:34:26.454Z,28.27
2023-04-18T10:35:25.436Z,28.52
2023-04-18T10:36:25.434Z,28.57
2023-04-18T10:37:25.440Z,28.43
2023-04-18T10:38:25.417Z,28.40
2023-04-18T10:39:25.408Z,28.37
2023-04-18T10:40:25.404Z,28.11
2023-04-18T10:41:25.404Z,28.03
2023-04-18T10:42:25.401Z,28.10
2023-04-18T10:43:25.399Z,28.06
2023-04-18T10:44:25.361Z,27.97
2023-04-18T10:45:25.365Z,28.10
2023-04-18T10:46:31.793Z,27.94
2023-04-18T10:47:26.420Z,27.91
2023-04-18T10:48:25.349Z,27.87
2023-04-18T10:49:27.012Z,27.80
2023-04-18T10:50:25.346Z,27.88
2023-04-18T10:51:25.359Z,27.87
2023-04-18T10:52:25.337Z,27.77
2023-04-18T10:53:25.311Z,27.63
2023-04-18T10:54:25.312Z,27.74
2023-04-18T10:55:25.292Z,27.69
2023-04-18T10:56:25.329Z,27.63
2023-04-18T10:57:25.288Z,27.61
2023-04-18T10:58:25.280Z,27.62
2023-04-18T10:59:25.287Z,27.40
2023-04-18T11:00:25.259Z,27.49
2023-04-18T11:01:25.382Z,27.44
2023-04-18T11:02:25.332Z,27.55
2023-04-18T11:03:25.342Z,27.64
2023-04-18T11:04:25.328Z,27.35
2023-04-18T11:05:25.243Z,27.52
2023-04-18T11:06:25.264Z,27.31
2023-04-18T11:07:25.224Z,27.39
2023-04-18T11:08:25.234Z,27.49
2023-04-18T11:09:25.224Z,27.30
2023-04-18T11:10:25.422Z,27.01
2023-04-18T11:11:25.770Z,26.40
2023-04-18T11:12:25.251Z,25.89
2023-04-18T11:13:25.215Z,25.57
2023-04-18T11:14:25.260Z,25.20
2023-04-18T11:15:25.390Z,25.30
2023-04-18T11:16:25.328Z,25.36
2023-04-18T11:17:25.289Z,25.46
2023-04-18T11:18:25.158Z,25.55
2023-04-18T11:19:25.220Z,25.70
2023-04-18T11:20:25.151Z,25.80
2023-04-18T11:21:25.159Z,25.97
2023-04-18T11:22:25.262Z,26.00
2023-04-18T11:23:25.183Z,26.15
2023-04-18T11:24:25.116Z,26.31
2023-04-18T11:25:25.114Z,26.42
2023-04-18T11:26:25.100Z,26.47
2023-04-18T11:27:25.117Z,26.57
2023-04-18T11:28:25.118Z,26.69
2023-04-18T11:29:25.115Z,26.82
2023-04-18T11:30:25.055Z,26.96
2023-04-18T11:31:25.138Z,27.10
2023-04-18T11:32:25.161Z,27.12
2023-04-18T11:33:25.065Z,27.31
2023-04-18T11:34:25.047Z,27.35
2023-04-18T11:35:25.231Z,27.47
2023-04-18T11:36:25.031Z,27.89
2023-04-18T11:37:25.041Z,28.09
2023-04-18T11:38:25.021Z,27.83
2023-04-18T11:39:25.034Z,28.04
2023-04-18T11:40:25.109Z,28.17
2023-04-18T11:41:25.167Z,28.39
2023-04-18T11:42:25.184Z,28.43
2023-04-18T11:43:25.240Z,28.47
2023-04-18T11:44:25.286Z,28.50
2023-04-18T11:45:25.370Z,28.45
2023-04-18T11:46:25.616Z,29.32
2023-04-18T11:47:25.510Z,29.33
2023-04-18T11:48:25.510Z,28.85
2023-04-18T11:49:25.536Z,29.37
2023-04-18T11:50:25.633Z,32.38
2023-04-18T11:51:25.576Z,35.33
2023-04-18T11:52:25.542Z,34.60
2023-04-18T11:53:25.658Z,34.05
2023-04-18T11:54:25.615Z,33.33
2023-04-18T11:55:25.785Z,32.17
2023-04-18T11:56:25.742Z,31.62
2023-04-18T11:57:25.799Z,31.19
2023-04-18T11:58:25.845Z,30.87
2023-04-18T11:59:25.900Z,30.51
2023-04-18T12:00:25.934Z,30.36
2023-04-18T12:01:26.010Z,30.00
2023-04-18T12:02:26.149Z,29.79
2023-04-18T12:03:26.227Z,29.66
2023-04-18T12:04:26.387Z,29.45
2023-04-18T12:05:26.491Z,29.43
2023-04-18T12:06:26.297Z,29.39
2023-04-18T12:07:26.201Z,29.28
2023-04-18T12:08:26.196Z,29.16
2023-04-18T12:09:26.244Z,29.10
2023-04-18T12:10:26.315Z,29.02
2023-04-18T12:11:26.266Z,29.00
2023-04-18T12:12:26.304Z,28.91
2023-04-18T12:13:26.324Z,28.92
2023-04-18T12:14:26.330Z,28.83
2023-04-18T12:15:26.376Z,28.69
2023-04-18T12:16:26.525Z,28.85
2023-04-18T12:17:26.820Z,28.35
2023-04-18T12:18:26.446Z,28.49
2023-04-18T12:19:26.589Z,28.30
2023-04-18T12:20:26.521Z,27.98
2023-04-18T12:21:26.517Z,28.39
2023-04-18T12:22:26.776Z,28.56
2023-04-18T12:23:26.561Z,28.66
2023-04-18T12:24:26.570Z,28.65
2023-04-18T12:25:27.699Z,28.60
2023-04-18T12:26:26.590Z,28.67
2023-04-18T12:27:26.650Z,28.73
2023-04-18T12:28:26.735Z,29.07
2023-04-18T12:29:26.773Z,29.01
2023-04-18T12:30:26.818Z,29.10
2023-04-18T12:31:26.869Z,28.94
2023-04-18T12:32:26.938Z,28.82
2023-04-18T12:33:27.035Z,28.85
2023-04-18T12:34:26.944Z,28.81
2023-04-18T12:35:26.967Z,28.81
2023-04-18T12:36:26.977Z,28.85
2023-04-18T12:37:27.291Z,28.97
2023-04-18T12:38:27.021Z,28.95
2023-04-18T12:39:27.042Z,29.21
2023-04-18T12:40:27.082Z,28.81
2023-04-18T12:41:27.062Z,28.84
2023-04-18T12:42:27.088Z,28.75
2023-04-18T12:43:27.120Z,28.79
2023-04-18T12:44:27.044Z,28.76
2023-04-18T12:45:27.030Z,28.41
2023-04-18T12:46:27.082Z,28.62
2023-04-18T12:47:27.077Z,28.44
2023-04-18T12:48:27.039Z,28.51
2023-04-18T12:49:27.104Z,28.22
2023-04-18T12:50:27.103Z,28.41
2023-04-18T12:51:27.140Z,28.19
2023-04-18T12:52:27.210Z,27.98